Time;durP1;ratioP1;P1;durP2;ratioP2;P2;SDS_P1;SDS_P2;PMS_P1;PMS_P2;Temp;Humidity;BMP_temperature;BMP_pressure;BME280_temperature;BME280_humidity;BME280_pressure;Samples;Min_cycle;Max_cycle;Signal;HPM_P1;HPM_P2
2022/03/05 00:00:25;;;;;;;0.70;0.70;;;;;;;-0.71;56.25;97046.59;29373;266;63005;-64
2022/03/05 00:00:57;;;;;;;0.60;0.60;;;;;;;-0.70;56.18;97045.56;29373;228;63009;-64
2022/03/05 00:01:28;;;;;;;0.70;0.70;;;;;;;-0.67;56.06;97042.44;29373;216;63004;-65
2022/03/05 00:02:03;;;;;;;0.68;0.68;;;;;;;-0.67;56.07;97052.28;29373;226;63009;-65
2022/03/05 00:02:34;;;;;;;0.70;0.70;;;;;;;-0.66;56.44;97043.25;29371;197;64009;-64
2022/03/05 00:03:06;;;;;;;10.38;9.93;;;;;;;-0.67;56.54;97042.44;29366;222;65008;-64
2022/03/05 00:03:41;;;;;;;0.60;0.60;;;;;;;-0.65;56.42;97044.06;29373;197;63007;-63
2022/03/05 00:04:15;;;;;;;5.28;5.07;;;;;;;-0.65;56.84;97047.56;29373;252;63009;-63
2022/03/05 00:04:47;;;;;;;0.70;0.70;;;;;;;-0.66;56.65;97048.59;29373;267;63005;-63
2022/03/05 00:05:19;;;;;;;0.60;0.60;;;;;;;-0.70;56.73;97048.22;29373;223;63009;-65
2022/03/05 00:05:52;;;;;;;0.60;0.60;;;;;;;-0.72;56.87;97052.97;29373;213;63005;-65
2022/03/05 00:06:26;;;;;;;0.70;0.70;;;;;;;-0.74;56.84;97044.37;29373;393;63009;-64
2022/03/05 00:06:59;;;;;;;0.68;0.68;;;;;;;-0.73;56.80;97051.34;29373;225;63005;-65
2022/03/05 00:07:31;;;;;;;0.70;0.70;;;;;;;-0.76;57.44;97054.44;29373;224;63009;-64
2022/03/05 00:08:04;;;;;;;0.60;0.60;;;;;;;-0.76;57.18;97046.44;29371;215;64009;-65
2022/03/05 00:08:41;;;;;;;0.70;0.70;;;;;;;-0.76;56.68;97048.28;29371;360;64013;-63
2022/03/05 00:09:13;;;;;;;0.60;0.60;;;;;;;-0.76;56.93;97049.09;29373;206;63004;-64
2022/03/05 00:09:45;;;;;;;0.60;0.60;;;;;;;-0.75;56.75;97045.41;29373;244;63009;-63
2022/03/05 00:10:21;;;;;;;3.83;3.53;;;;;;;-0.72;56.63;97044.16;29373;214;63004;-63
2022/03/05 00:10:55;;;;;;;0.70;0.70;;;;;;;-0.72;56.94;97044.97;29373;237;63008;-62
2022/03/05 00:11:27;;;;;;;1.75;1.75;;;;;;;-0.73;56.50;97048.66;29373;216;63005;-61
2022/03/05 00:12:01;;;;;;;0.60;0.60;;;;;;;-0.74;56.24;97036.37;29373;222;63016;-63
2022/03/05 00:12:32;;;;;;;0.60;0.60;;;;;;;-0.73;56.03;97040.66;29373;237;63005;-64
2022/03/05 00:13:05;;;;;;;0.65;0.65;;;;;;;-0.72;56.08;97036.97;29373;222;63009;-64
2022/03/05 00:13:36;;;;;;;0.62;0.62;;;;;;;-0.70;56.82;97047.41;29373;233;63005;-62
2022/03/05 00:14:07;;;;;;;0.60;0.60;;;;;;;-0.70;56.65;97040.25;29371;373;64013;-62
2022/03/05 00:14:39;;;;;;;0.60;0.60;;;;;;;-0.71;57.72;97045.78;29373;366;63005;-63
2022/03/05 00:15:10;;;;;;;0.60;0.60;;;;;;;-0.73;57.55;97054.00;29373;274;63009;-62
2022/03/05 00:15:45;;;;;;;0.70;0.70;;;;;;;-0.73;57.01;97047.84;29373;248;63004;-64
2022/03/05 00:16:16;;;;;;;0.60;0.60;;;;;;;-0.73;57.35;97046.00;29373;224;63009;-63
2022/03/05 00:16:47;;;;;;;0.70;0.70;;;;;;;-0.71;57.51;97051.94;29373;232;63004;-64
2022/03/05 00:17:19;;;;;;;0.60;0.60;;;;;;;-0.72;57.40;97050.31;29373;199;63009;-62
2022/03/05 00:17:53;;;;;;;0.70;0.70;;;;;;;-0.72;57.02;97055.62;29373;246;63004;-63
2022/03/05 00:18:28;;;;;;;0.70;0.70;;;;;;;-0.72;57.20;97044.97;29371;219;64013;-64
2022/03/05 00:19:01;;;;;;;0.60;0.60;;;;;;;-0.72;57.90;97055.62;29373;263;63005;-62
2022/03/05 00:19:33;;;;;;;0.60;0.60;;;;;;;-0.75;57.83;97056.06;29371;202;64026;-64
2022/03/05 00:20:06;;;;;;;0.60;0.60;;;;;;;-0.76;57.51;97057.09;29371;216;64009;-63
2022/03/05 00:20:38;;;;;;;0.70;0.70;;;;;;;-0.78;58.28;97051.16;29373;197;63009;-65
2022/03/05 00:21:09;;;;;;;0.70;0.70;;;;;;;-0.81;58.07;97056.91;29373;300;63005;-64
2022/03/05 00:21:40;;;;;;;0.65;0.65;;;;;;;-0.82;57.67;97052.63;29371;216;64013;-63
2022/03/05 00:22:12;;;;;;;0.70;0.70;;;;;;;-0.82;57.48;97054.47;29373;202;63005;-64
2022/03/05 00:22:43;;;;;;;0.70;0.70;;;;;;;-0.81;57.35;97051.59;29373;278;63009;-64
2022/03/05 00:23:18;;;;;;;2.30;2.25;;;;;;;-0.81;57.21;97051.59;29373;218;63004;-63
2022/03/05 00:23:51;;;;;;;0.70;0.70;;;;;;;-0.82;57.15;97047.28;29373;283;63009;-63
2022/03/05 00:24:22;;;;;;;0.60;0.60;;;;;;;-0.81;57.17;97051.59;29373;197;63004;-63
2022/03/05 00:24:57;;;;;;;0.65;0.65;;;;;;;-0.79;57.44;97054.84;29373;215;63009;-63
2022/03/05 00:25:29;;;;;;;0.60;0.60;;;;;;;-0.78;57.41;97051.16;29373;367;63004;-63
2022/03/05 00:26:00;;;;;;;0.60;0.60;;;;;;;-0.79;57.54;97048.72;29373;221;63008;-62
2022/03/05 00:26:32;;;;;;;0.70;0.70;;;;;;;-0.81;57.55;97048.94;29371;219;64009;-64
2022/03/05 00:27:08;;;;;;;0.60;0.60;;;;;;;-0.84;57.83;97057.34;29373;208;63009;-64
2022/03/05 00:27:41;;;;;;;0.70;0.70;;;;;;;-0.87;57.84;97055.12;29371;229;64009;-63
2022/03/05 00:28:12;;;;;;;0.62;0.62;;;;;;;-0.89;57.50;97053.69;29373;197;63009;-62
2022/03/05 00:28:43;;;;;;;0.60;0.60;;;;;;;-0.88;57.43;97050.81;29373;218;63005;-63
2022/03/05 00:29:15;;;;;;;0.60;0.60;;;;;;;-0.88;58.32;97053.47;29373;204;63009;-63
2022/03/05 00:29:46;;;;;;;0.60;0.60;;;;;;;-0.89;57.62;97053.69;29373;218;63005;-62
2022/03/05 00:30:18;;;;;;;0.60;0.60;;;;;;;-0.89;57.76;97059.84;29373;223;63009;-63
2022/03/05 00:30:49;;;;;;;3.12;2.90;;;;;;;-0.88;57.72;97056.16;29373;199;63004;-62
2022/03/05 00:31:22;;;;;;;0.70;0.70;;;;;;;-0.87;57.53;97048.97;29373;250;63009;-65
2022/03/05 00:31:53;;;;;;;0.60;0.60;;;;;;;-0.88;57.83;97053.47;29373;373;63004;-65
2022/03/05 00:32:25;;;;;;;0.60;0.60;;;;;;;-0.90;58.59;97054.72;29371;206;64013;-63
2022/03/05 00:32:57;;;;;;;0.60;0.60;;;;;;;-0.95;58.59;97052.72;29373;227;63004;-63
2022/03/05 00:33:28;;;;;;;0.60;0.60;;;;;;;-0.99;58.25;97054.16;29373;320;63008;-62
2022/03/05 00:34:00;;;;;;;0.70;0.70;;;;;;;-1.00;58.17;97047.22;29373;308;63005;-63
2022/03/05 00:34:32;;;;;;;0.60;0.60;;;;;;;-1.02;57.75;97049.28;29373;263;63009;-64
2022/03/05 00:35:05;;;;;;;0.60;0.60;;;;;;;-1.03;57.76;97048.47;29371;361;64009;-63
2022/03/05 00:35:37;;;;;;;0.60;0.60;;;;;;;-1.02;58.33;97047.44;29373;197;63009;-63
2022/03/05 00:36:08;;;;;;;0.60;0.60;;;;;;;-1.02;57.88;97054.59;29373;225;63005;-62
2022/03/05 00:36:40;;;;;;;0.80;0.80;;;;;;;-1.01;57.91;97048.25;29371;232;64028;-63
2022/03/05 00:37:12;;;;;;;0.60;0.60;;;;;;;-1.04;58.05;97049.50;29373;220;63005;-63
2022/03/05 00:37:46;;;;;;;0.60;0.60;;;;;;;-1.04;58.02;97044.16;29373;221;63009;-64
2022/03/05 00:38:17;;;;;;;0.60;0.60;;;;;;;-1.04;57.90;97046.81;29373;247;63017;-62
2022/03/05 00:38:48;;;;;;;0.60;0.60;;;;;;;-1.02;58.22;97043.94;29373;215;63009;-64
2022/03/05 00:39:20;;;;;;;0.65;0.65;;;;;;;-1.03;58.64;97044.97;29373;203;63008;-63
2022/03/05 00:39:52;;;;;;;2.10;2.10;;;;;;;-1.04;58.35;97048.69;29373;218;63009;-63
2022/03/05 00:40:23;;;;;;;0.60;0.60;;;;;;;-1.05;58.37;97050.56;29371;260;64009;-65
2022/03/05 00:40:55;;;;;;;0.70;0.70;;;;;;;-1.04;58.49;97049.50;29373;257;63008;-63
2022/03/05 00:41:26;;;;;;;0.70;0.70;;;;;;;-1.05;58.53;97047.88;29373;289;63004;-63
2022/03/05 00:41:59;;;;;;;0.70;0.70;;;;;;;-1.04;58.57;97051.37;29371;223;64014;-63
2022/03/05 00:42:31;;;;;;;0.60;0.60;;;;;;;-1.04;58.27;97046.03;29373;198;63005;-62
2022/03/05 00:43:02;;;;;;;0.60;0.60;;;;;;;-1.03;58.27;97050.31;29373;197;63009;-62
2022/03/05 00:43:33;;;;;;;0.70;0.70;;;;;;;-1.02;58.33;97054.59;29373;205;63005;-63
2022/03/05 00:44:05;;;;;;;0.60;0.60;;;;;;;-1.03;58.59;97043.13;29373;223;63009;-63
2022/03/05 00:44:36;;;;;;;0.60;0.60;;;;;;;-1.04;58.99;97044.16;29373;289;63005;-63
2022/03/05 00:45:08;;;;;;;0.70;0.70;;;;;;;-1.05;58.82;97049.72;29373;202;63009;-63
2022/03/05 00:45:39;;;;;;;0.70;0.70;;;;;;;-1.06;58.45;97048.91;29373;197;63004;-64
2022/03/05 00:46:11;;;;;;;0.70;0.70;;;;;;;-1.04;58.91;97048.69;29373;254;63009;-63
2022/03/05 00:46:43;;;;;;;0.60;0.60;;;;;;;-1.05;58.72;97049.72;29371;202;64009;-62
2022/03/05 00:47:15;;;;;;;0.70;0.70;;;;;;;-1.07;58.72;97047.28;29373;329;63009;-65
2022/03/05 00:47:46;;;;;;;0.65;0.65;;;;;;;-1.07;58.44;97046.47;29373;298;63015;-63
2022/03/05 00:48:17;;;;;;;0.60;0.60;;;;;;;-1.08;58.77;97050.16;29373;233;63008;-64
2022/03/05 00:48:48;;;;;;;0.70;0.70;;;;;;;-1.07;58.45;97051.78;29373;276;63004;-64
2022/03/05 00:49:19;;;;;;;0.60;0.60;;;;;;;-1.07;58.31;97046.47;29373;200;63009;-63
2022/03/05 00:49:50;;;;;;;6.85;6.43;;;;;;;-1.05;58.27;97044.41;29373;228;63005;-63
2022/03/05 00:50:22;;;;;;;0.60;0.60;;;;;;;-1.04;58.55;97051.37;29373;204;63017;-64
2022/03/05 00:50:54;;;;;;;0.60;0.60;;;;;;;-1.05;58.65;97042.56;29371;243;64009;-64
2022/03/05 00:51:25;;;;;;;0.60;0.60;;;;;;;-1.04;59.31;97051.37;29373;229;63018;-64
2022/03/05 00:51:56;;;;;;;0.60;0.60;;;;;;;-1.04;59.38;97051.37;29373;207;63005;-64
2022/03/05 00:52:27;;;;;;;0.60;0.60;;;;;;;-1.05;59.15;97049.72;29373;196;63009;-63
2022/03/05 00:52:59;;;;;;;0.60;0.60;;;;;;;-1.04;58.88;97056.69;29373;213;63004;-63
2022/03/05 00:53:32;;;;;;;0.60;0.60;;;;;;;-1.04;59.05;97051.37;29373;202;63009;-64
2022/03/05 00:54:03;;;;;;;0.60;0.60;;;;;;;-1.02;58.83;97052.75;29373;205;63004;-63
2022/03/05 00:54:34;;;;;;;0.60;0.60;;;;;;;-0.99;58.62;97051.50;29373;335;63009;-63
2022/03/05 00:55:10;;;;;;;0.60;0.60;;;;;;;-0.96;58.15;97048.41;29373;206;63004;-62
2022/03/05 00:55:41;;;;;;;0.60;0.60;;;;;;;-0.95;57.98;97049.22;29373;240;63008;-64
2022/03/05 00:56:16;;;;;;;0.60;0.60;;;;;;;-0.94;58.10;97054.34;29371;213;64009;-63
2022/03/05 00:56:48;;;;;;;0.70;0.70;;;;;;;-0.91;58.50;97055.75;29373;235;63009;-62
2022/03/05 00:57:19;;;;;;;0.60;0.60;;;;;;;-0.91;58.37;97056.59;29373;219;63005;-61
2022/03/05 00:57:51;;;;;;;0.60;0.60;;;;;;;-0.91;58.63;97051.25;29373;226;63005;-62
2022/03/05 00:58:23;;;;;;;0.70;0.70;;;;;;;-0.91;58.54;97055.75;29373;219;63005;-64
2022/03/05 00:58:57;;;;;;;0.60;0.60;;;;;;;-0.90;58.58;97052.06;29373;209;63009;-63
2022/03/05 00:59:29;;;;;;;0.60;0.60;;;;;;;-0.90;58.49;97050.22;29373;212;63005;-62
2022/03/05 01:00:00;;;;;;;0.68;0.68;;;;;;;-0.90;58.78;97058.22;29373;199;63009;-64
2022/03/05 01:00:32;;;;;;;0.70;0.70;;;;;;;-0.89;58.18;97054.50;29373;215;63004;-63
2022/03/05 01:01:03;;;;;;;0.70;0.70;;;;;;;-0.91;58.29;97051.25;29371;228;64013;-64
2022/03/05 01:01:34;;;;;;;0.60;0.60;;;;;;;-0.90;58.16;97047.56;29373;202;63004;-63
2022/03/05 01:02:06;;;;;;;0.60;0.60;;;;;;;-0.89;58.39;97053.69;29373;222;63009;-64
2022/03/05 01:02:38;;;;;;;0.60;0.60;;;;;;;-0.90;58.21;97052.88;29373;228;63004;-64
2022/03/05 01:03:09;;;;;;;0.70;0.70;;;;;;;-0.89;58.22;97049.19;29373;209;63008;-63
2022/03/05 01:03:40;;;;;;;0.60;0.60;;;;;;;-0.90;58.51;97047.56;29373;205;63005;-63
2022/03/05 01:04:11;;;;;;;0.60;0.60;;;;;;;-0.91;58.54;97050.44;29373;212;63009;-63
2022/03/05 01:04:43;;;;;;;0.60;0.60;;;;;;;-0.92;58.45;97044.28;29373;209;63005;-64
2022/03/05 01:05:14;;;;;;;0.60;0.60;;;;;;;-0.93;58.66;97048.00;29373;199;63009;-64
2022/03/05 01:05:45;;;;;;;0.70;0.70;;;;;;;-0.93;58.86;97048.00;29371;213;64009;-64
2022/03/05 01:06:17;;;;;;;0.60;0.60;;;;;;;-0.94;58.65;97046.34;29371;260;64013;-63
2022/03/05 01:06:48;;;;;;;0.70;0.70;;;;;;;-0.95;58.66;97055.38;29371;200;64009;-64
2022/03/05 01:07:23;;;;;;;0.70;0.70;;;;;;;-0.96;58.77;97053.75;29373;278;63014;-64
2022/03/05 01:07:54;;;;;;;0.60;0.60;;;;;;;-0.98;58.35;97050.47;29373;284;63004;-63
2022/03/05 01:08:25;;;;;;;0.70;0.70;;;;;;;-0.97;59.00;97049.44;29373;230;63013;-64
2022/03/05 01:09:01;;;;;;;0.60;0.60;;;;;;;-0.97;58.54;97052.09;29373;225;63004;-64
2022/03/05 01:09:33;;;;;;;0.70;0.70;;;;;;;-0.98;58.70;97050.47;29373;196;63021;-65
2022/03/05 01:10:06;;;;;;;0.70;0.70;;;;;;;-0.97;58.94;97046.78;29373;197;63004;-64
2022/03/05 01:10:37;;;;;;;0.60;0.60;;;;;;;-1.00;58.99;97052.53;29371;263;64013;-63
2022/03/05 01:11:15;;;;;;;0.70;0.70;;;;;;;-1.03;59.10;97053.78;29373;278;63005;-64
2022/03/05 01:11:49;;;;;;;0.60;0.60;;;;;;;-1.04;59.03;97046.81;29373;204;63009;-65
2022/03/05 01:12:22;;;;;;;0.70;0.70;;;;;;;-1.05;58.55;97047.88;29373;365;63005;-64
2022/03/05 01:12:55;;;;;;;0.60;0.60;;;;;;;-1.03;58.75;97044.97;29373;224;63009;-64
2022/03/05 01:13:27;;;;;;;0.68;0.68;;;;;;;-1.03;58.50;97048.47;29373;220;63011;-63
2022/03/05 01:13:58;;;;;;;0.68;0.68;;;;;;;-1.04;58.54;97046.81;29371;209;64013;-64
2022/03/05 01:14:29;;;;;;;0.60;0.60;;;;;;;-1.05;58.36;97044.41;29373;197;63005;-63
2022/03/05 01:15:01;;;;;;;0.60;0.60;;;;;;;-1.07;59.02;97043.81;29373;215;63028;-62
2022/03/05 01:15:32;;;;;;;0.70;0.70;;;;;;;-1.09;58.51;97043.19;29373;271;63015;-62
2022/03/05 01:16:04;;;;;;;0.62;0.62;;;;;;;-1.09;58.85;97044.03;29373;231;63009;-64
2022/03/05 01:16:36;;;;;;;1.10;1.10;;;;;;;-1.08;58.36;97042.16;29373;294;63004;-62
2022/03/05 01:17:09;;;;;;;0.70;0.70;;;;;;;-1.07;58.66;97043.81;29371;254;64013;-62
2022/03/05 01:17:40;;;;;;;0.70;0.70;;;;;;;-1.06;59.01;97042.78;29373;202;63004;-62
2022/03/05 01:18:11;;;;;;;0.70;0.70;;;;;;;-1.06;59.72;97053.44;29371;316;64013;-63
2022/03/05 01:18:43;;;;;;;0.70;0.70;;;;;;;-1.08;59.29;97035.00;29373;232;63005;-63
2022/03/05 01:19:14;;;;;;;0.62;0.62;;;;;;;-1.06;59.24;97042.78;29373;224;63009;-64
2022/03/05 01:19:46;;;;;;;0.60;0.60;;;;;;;-1.05;59.07;97041.75;29373;249;63005;-65
2022/03/05 01:20:18;;;;;;;0.60;0.60;;;;;;;-1.04;59.42;97040.72;29373;199;63009;-64
2022/03/05 01:20:49;;;;;;;0.60;0.60;;;;;;;-1.05;59.74;97047.06;29373;346;63005;-64
2022/03/05 01:21:21;;;;;;;0.60;0.60;;;;;;;-1.06;59.69;97034.78;29371;216;64013;-65
2022/03/05 01:21:53;;;;;;;0.60;0.60;;;;;;;-1.08;59.77;97039.50;29373;213;63005;-64
2022/03/05 01:22:25;;;;;;;0.70;0.70;;;;;;;-1.09;59.63;97044.03;29373;285;63009;-63
2022/03/05 01:22:56;;;;;;;0.60;0.60;;;;;;;-1.08;59.80;97044.84;29371;285;64009;-63
2022/03/05 01:23:28;;;;;;;0.70;0.70;;;;;;;-1.08;59.39;97036.84;29373;198;63009;-65
2022/03/05 01:23:59;;;;;;;0.60;0.60;;;;;;;-1.08;59.52;97031.53;29373;202;63004;-64
2022/03/05 01:24:31;;;;;;;0.60;0.60;;;;;;;-1.08;59.50;97039.50;29373;384;63009;-64
2022/03/05 01:25:02;;;;;;;0.70;0.70;;;;;;;-1.08;59.67;97039.50;29371;202;64009;-64
2022/03/05 01:25:34;;;;;;;1.10;1.10;;;;;;;-1.08;59.62;97035.00;29373;256;63008;-64
2022/03/05 01:26:06;;;;;;;0.70;0.70;;;;;;;-1.07;59.48;97038.47;29373;213;63005;-64
2022/03/05 01:26:37;;;;;;;0.65;0.65;;;;;;;-1.08;59.49;97039.50;29373;267;63009;-64
2022/03/05 01:27:08;;;;;;;0.60;0.60;;;;;;;-1.09;59.18;97027.22;29373;211;63005;-65
2022/03/05 01:27:39;;;;;;;0.60;0.60;;;;;;;-1.08;59.10;97035.00;29373;221;63009;-65
2022/03/05 01:28:10;;;;;;;0.60;0.60;;;;;;;-1.07;59.27;97035.81;29373;220;63005;-64
2022/03/05 01:28:41;;;;;;;0.60;0.60;;;;;;;-1.04;58.94;97030.84;29373;219;63009;-64
2022/03/05 01:29:15;;;;;;;0.70;0.70;;;;;;;-1.02;58.32;97027.97;29371;257;64009;-62
2022/03/05 01:29:46;;;;;;;0.60;0.60;;;;;;;-1.02;58.13;97028.78;29373;225;63009;-62
2022/03/05 01:30:17;;;;;;;0.60;0.60;;;;;;;-1.02;58.43;97025.31;29373;205;63004;-63
2022/03/05 01:30:49;;;;;;;0.60;0.60;;;;;;;-1.02;58.85;97027.97;29373;214;63009;-63
2022/03/05 01:31:20;;;;;;;0.60;0.60;;;;;;;-1.02;58.49;97027.97;29373;229;63004;-64
2022/03/05 01:31:51;;;;;;;0.60;0.60;;;;;;;-1.02;58.74;97028.78;29373;232;63017;-64
2022/03/05 01:32:22;;;;;;;0.60;0.60;;;;;;;-1.00;58.70;97031.22;29373;244;63004;-63
2022/03/05 01:32:55;;;;;;;0.60;0.60;;;;;;;-1.01;58.59;97029.59;29371;207;64013;-63
2022/03/05 01:33:27;;;;;;;0.60;0.60;;;;;;;-1.00;58.72;97031.22;29373;221;63008;-63
2022/03/05 01:33:58;;;;;;;0.60;0.60;;;;;;;-1.00;58.36;97025.91;29373;202;63009;-63
2022/03/05 01:34:29;;;;;;;0.60;0.60;;;;;;;-0.99;57.97;97022.22;29373;203;63005;-64
2022/03/05 01:35:01;;;;;;;0.60;0.60;;;;;;;-0.98;58.68;97029.16;29373;212;63009;-64
2022/03/05 01:35:35;;;;;;;0.70;0.70;;;;;;;-0.97;58.45;97030.00;29373;220;63005;-64
2022/03/05 01:36:06;;;;;;;0.70;0.70;;;;;;;-0.96;58.35;97026.28;29373;199;63024;-63
2022/03/05 01:36:38;;;;;;;0.60;0.60;;;;;;;-0.95;58.49;97031.41;29373;214;63017;-64
2022/03/05 01:37:12;;;;;;;0.60;0.60;;;;;;;-0.94;58.49;97024.22;29373;233;63009;-63
2022/03/05 01:37:44;;;;;;;0.70;0.70;;;;;;;-0.94;58.49;97025.03;29371;221;64021;-63
2022/03/05 01:38:16;;;;;;;3.95;3.80;;;;;;;-0.92;58.41;97028.31;29373;345;63009;-62
2022/03/05 01:38:47;;;;;;;0.60;0.60;;;;;;;-0.90;58.47;97031.56;29371;228;64009;-62
2022/03/05 01:39:19;;;;;;;0.60;0.60;;;;;;;-0.89;58.64;97027.06;29373;214;63009;-62
2022/03/05 01:39:53;;;;;;;0.70;0.70;;;;;;;-0.88;58.80;97029.50;29373;332;63004;-64
2022/03/05 01:40:24;;;;;;;0.60;0.60;;;;;;;-0.89;58.99;97027.87;29373;197;63008;-64
2022/03/05 01:40:56;;;;;;;0.60;0.60;;;;;;;-0.88;58.62;97024.19;29373;219;63004;-63
2022/03/05 01:41:29;;;;;;;0.60;0.60;;;;;;;-0.88;58.99;97029.50;29373;197;63009;-66
2022/03/05 01:42:01;;;;;;;0.60;0.60;;;;;;;-0.91;59.24;97024.62;29373;241;63009;-63
2022/03/05 01:42:32;;;;;;;0.70;0.70;;;;;;;-0.93;58.97;97032.00;29373;218;63009;-65
2022/03/05 01:43:04;;;;;;;0.60;0.60;;;;;;;-0.93;58.66;97025.88;29371;217;64009;-64
2022/03/05 01:43:35;;;;;;;0.65;0.65;;;;;;;-0.93;58.72;97021.34;29373;227;63009;-64
2022/03/05 01:44:06;;;;;;;0.68;0.68;;;;;;;-0.92;58.85;97022.16;29373;198;63005;-64
2022/03/05 01:44:41;;;;;;;0.60;0.60;;;;;;;-0.93;59.33;97026.69;29373;205;63009;-62
2022/03/05 01:45:14;;;;;;;0.70;0.70;;;;;;;-0.94;59.25;97025.03;29373;197;63004;-64
2022/03/05 01:45:45;;;;;;;0.62;0.62;;;;;;;-0.94;59.08;97030.38;29373;304;63009;-64
2022/03/05 01:46:30;;;;;;;0.60;0.60;;;;;;;-0.95;59.17;97028.75;29373;222;63004;-64
2022/03/05 01:47:03;;;;;;;0.60;0.60;;;;;;;-0.96;59.45;97027.09;29373;364;63008;-63
2022/03/05 01:47:37;;;;;;;0.60;0.60;;;;;;;-0.98;58.97;97023.84;29371;371;64008;-62
2022/03/05 01:48:08;;;;;;;0.70;0.70;;;;;;;-0.99;59.08;97026.72;29373;233;63013;-63
2022/03/05 01:48:39;;;;;;;0.60;0.60;;;;;;;-1.01;59.02;97025.09;29371;273;64009;-64
2022/03/05 01:49:12;;;;;;;10.68;9.93;;;;;;;-1.01;58.91;97025.09;29365;212;65009;-64
2022/03/05 01:49:45;;;;;;;0.60;0.60;;;;;;;-1.02;60.05;97027.97;29373;321;63005;-63
2022/03/05 01:50:17;;;;;;;0.60;0.60;;;;;;;-1.05;59.59;97023.91;29371;228;64013;-64
2022/03/05 01:50:50;;;;;;;0.70;0.70;;;;;;;-1.05;59.32;97028.44;29373;200;63005;-64
2022/03/05 01:51:21;;;;;;;0.60;0.60;;;;;;;-1.06;59.92;97034.78;29373;216;63009;-63
2022/03/05 01:51:54;;;;;;;0.70;0.70;;;;;;;-1.10;59.95;97026.41;29373;223;63005;-65
2022/03/05 01:52:25;;;;;;;0.60;0.60;;;;;;;-1.10;59.93;97025.59;29373;205;63009;-64
2022/03/05 01:52:56;;;;;;;0.60;0.60;;;;;;;-1.11;59.43;97029.28;29372;218;64004;-64
2022/03/05 01:53:28;;;;;;;0.60;0.60;;;;;;;-1.12;59.66;97032.97;29373;214;63009;-63
2022/03/05 01:53:59;;;;;;;0.70;0.70;;;;;;;-1.12;59.56;97020.47;29373;198;63006;-64
2022/03/05 01:54:31;;;;;;;0.60;0.60;;;;;;;-1.11;59.49;97030.09;29373;230;63009;-62
2022/03/05 01:55:04;;;;;;;0.70;0.70;;;;;;;-1.11;59.28;97026.63;29373;299;63004;-65
2022/03/05 01:55:35;;;;;;;0.62;0.62;;;;;;;-1.11;59.10;97029.28;29371;323;64014;-65
2022/03/05 01:56:06;;;;;;;0.60;0.60;;;;;;;-1.10;59.33;97014.94;29373;229;63005;-63
2022/03/05 01:56:42;;;;;;;0.60;0.60;;;;;;;-1.09;59.23;97021.91;29373;240;63009;-62
2022/03/05 01:57:16;;;;;;;0.60;0.60;;;;;;;-1.07;59.07;97025.16;29373;222;63005;-63
2022/03/05 01:57:47;;;;;;;0.70;0.70;;;;;;;-1.03;58.96;97023.69;29373;284;63009;-65
2022/03/05 01:58:19;;;;;;;0.60;0.60;;;;;;;-1.01;58.64;97024.28;29373;203;63005;-63
2022/03/05 01:58:52;;;;;;;0.57;0.57;;;;;;;-0.99;58.66;97027.53;29371;212;64013;-62
2022/03/05 01:59:24;;;;;;;0.60;0.60;;;;;;;-0.99;58.59;97016.88;29373;205;63005;-63
2022/03/05 01:59:56;;;;;;;0.60;0.60;;;;;;;-0.97;58.67;97022.00;29373;210;63015;-62
2022/03/05 02:00:29;;;;;;;0.60;0.60;;;;;;;-0.96;58.61;97020.97;29373;239;63004;-64
2022/03/05 02:01:00;;;;;;;0.70;0.70;;;;;;;-0.95;58.83;97028.75;29373;232;63004;-63
2022/03/05 02:01:31;;;;;;;0.60;0.60;;;;;;;-0.96;58.72;97019.13;29373;367;63000;-64
2022/03/05 02:02:04;;;;;;;0.60;0.60;;;;;;;-0.93;58.90;97024.00;29373;223;63009;-66
2022/03/05 02:02:35;;;;;;;0.60;0.60;;;;;;;-0.92;58.68;97022.97;29373;223;63004;-64
2022/03/05 02:03:06;;;;;;;0.60;0.60;;;;;;;-0.92;58.86;97022.97;29373;229;63009;-63
2022/03/05 02:03:38;;;;;;;0.60;0.60;;;;;;;-0.91;58.62;97024.62;29373;234;63005;-63
2022/03/05 02:04:13;;;;;;;0.70;0.70;;;;;;;-0.91;58.66;97019.28;29371;215;64014;-64
2022/03/05 02:04:44;;;;;;;0.60;0.60;;;;;;;-0.90;58.30;97017.44;29373;228;63005;-64
2022/03/05 02:05:16;;;;;;;0.60;0.60;;;;;;;-0.90;58.72;97020.91;29371;225;64013;-64
2022/03/05 02:05:47;;;;;;;0.60;0.60;;;;;;;-0.89;58.81;97021.72;29373;259;63005;-63
2022/03/05 02:06:20;;;;;;;0.60;0.60;;;;;;;-0.92;58.68;97022.97;29373;205;63009;-64
2022/03/05 02:06:53;;;;;;;0.60;0.60;;;;;;;-0.95;58.61;97023.41;29373;204;63005;-64
2022/03/05 02:07:25;;;;;;;0.60;0.60;;;;;;;-0.94;58.59;97018.91;29373;313;63009;-65
2022/03/05 02:07:57;;;;;;;0.60;0.60;;;;;;;-0.94;58.58;97014.38;29373;226;63004;-64
2022/03/05 02:08:29;;;;;;;0.60;0.60;;;;;;;-0.94;58.37;97019.72;29373;202;63009;-64
2022/03/05 02:09:01;;;;;;;0.60;0.60;;;;;;;-0.93;58.23;97018.69;29373;333;63004;-64
2022/03/05 02:09:32;;;;;;;0.80;0.80;;;;;;;-0.95;58.35;97018.09;29373;341;63009;-64
2022/03/05 02:10:06;;;;;;;0.60;0.60;;;;;;;-0.94;58.13;97014.38;29373;204;63010;-64
2022/03/05 02:10:40;;;;;;;0.60;0.60;;;;;;;-0.93;58.20;97017.88;29371;354;64014;-65
2022/03/05 02:11:11;;;;;;;0.60;0.60;;;;;;;-0.94;58.29;97018.91;29373;225;63005;-64
2022/03/05 02:11:43;;;;;;;0.60;0.60;;;;;;;-0.94;58.43;97014.38;29373;199;63009;-64
2022/03/05 02:12:14;;;;;;;0.60;0.60;;;;;;;-0.94;58.35;97019.72;29373;369;63005;-64
2022/03/05 02:12:46;;;;;;;0.60;0.60;;;;;;;-0.92;58.39;97015.00;29373;198;63009;-64
2022/03/05 02:13:17;;;;;;;0.60;0.60;;;;;;;-0.91;58.26;97018.47;29373;227;63005;-64
2022/03/05 02:13:52;;;;;;;0.60;0.60;;;;;;;-0.88;58.23;97015.38;29373;218;63009;-63
2022/03/05 02:14:23;;;;;;;0.60;0.60;;;;;;;-0.88;58.12;97018.84;29373;197;63009;-62
2022/03/05 02:14:58;;;;;;;0.60;0.60;;;;;;;-0.88;58.36;97016.19;29373;399;63009;-62
2022/03/05 02:15:39;;;;;;;0.60;0.60;;;;;;;-0.88;58.58;97012.72;29371;212;64009;-64
2022/03/05 02:16:14;;;;;;;0.60;0.60;;;;;;;-0.90;59.14;97020.91;29395;227;63018;-64
2022/03/05 02:16:58;;;;;;;0.60;0.60;;;;;;;-0.90;58.75;97020.09;29395;315;63004;-64
2022/03/05 02:17:34;;;;;;;0.50;0.50;;;;;;;-0.90;58.78;97026.25;29371;227;64013;-64
2022/03/05 02:18:07;;;;;;;0.60;0.60;;;;;;;-0.90;58.82;97020.09;29373;319;63005;-66
2022/03/05 02:18:45;;;;;;;0.60;0.60;;;;;;;-0.90;58.69;97020.09;29373;278;63009;-64
2022/03/05 02:19:17;;;;;;;0.60;0.60;;;;;;;-0.92;58.49;97020.31;29373;203;63005;-63
2022/03/05 02:19:48;;;;;;;0.60;0.60;;;;;;;-0.93;58.73;97016.03;29373;202;63009;-62
2022/03/05 02:20:21;;;;;;;0.60;0.60;;;;;;;-0.95;59.14;97023.41;29373;202;63005;-64
2022/03/05 02:20:56;;;;;;;0.65;0.65;;;;;;;-0.98;59.24;97021.19;29373;199;63009;-65
2022/03/05 02:21:28;;;;;;;0.60;0.60;;;;;;;-1.01;59.63;97030.41;29373;366;63005;-63
2022/03/05 02:21:59;;;;;;;0.60;0.60;;;;;;;-1.02;59.71;97027.97;29371;243;64013;-64
2022/03/05 02:22:30;;;;;;;0.60;0.60;;;;;;;-1.05;59.62;97025.75;29373;228;63004;-62
2022/03/05 02:23:02;;;;;;;0.60;0.60;;;;;;;-1.06;59.39;97021.47;29373;213;63009;-63
2022/03/05 02:23:33;;;;;;;0.60;0.60;;;;;;;-1.07;59.47;97025.16;29373;232;63004;-63
2022/03/05 02:24:06;;;;;;;0.60;0.60;;;;;;;-1.06;59.49;97027.63;29373;308;63009;-63
2022/03/05 02:24:39;;;;;;;0.60;0.60;;;;;;;-1.07;59.87;97025.16;29373;229;63004;-64
2022/03/05 02:25:10;;;;;;;0.70;0.70;;;;;;;-1.09;59.71;97024.56;29373;226;63008;-64
2022/03/05 02:26:10;;;;;;;0.70;0.70;;;;;;;-1.12;59.30;97025.81;29373;205;63005;-64
2022/03/05 02:26:41;;;;;;;0.70;0.70;;;;;;;-1.12;59.19;97027.66;29371;214;64014;-65
2022/03/05 02:27:12;;;;;;;0.60;0.60;;;;;;;-1.14;59.22;97027.06;29373;203;63005;-65
2022/03/05 02:27:44;;;;;;;0.62;0.62;;;;;;;-1.17;60.10;97030.97;29371;395;64013;-63
2022/03/05 02:28:16;;;;;;;0.60;0.60;;;;;;;-1.18;59.54;97031.16;29373;286;63005;-64
2022/03/05 02:28:47;;;;;;;0.70;0.70;;;;;;;-1.19;59.43;97032.19;29373;240;63009;-63
2022/03/05 02:29:19;;;;;;;0.60;0.60;;;;;;;-1.23;59.94;97033.66;29373;202;63005;-61
2022/03/05 02:29:50;;;;;;;0.60;0.60;;;;;;;-1.25;60.08;97033.06;29373;210;63009;-64
2022/03/05 02:30:22;;;;;;;0.70;0.70;;;;;;;-1.30;60.73;97035.53;29373;230;63016;-62
2022/03/05 02:30:57;;;;;;;0.60;0.60;;;;;;;-1.33;60.25;97035.97;29373;287;63009;-63
2022/03/05 02:31:29;;;;;;;0.68;0.68;;;;;;;-1.40;60.17;97031.53;29373;252;63004;-63
2022/03/05 02:32:10;;;;;;;0.70;0.70;;;;;;;-1.41;60.05;97034.41;29371;212;64006;-63
2022/03/05 02:32:41;;;;;;;0.90;0.90;;;;;;;-1.41;60.23;97032.56;29373;281;63000;-62
2022/03/05 02:33:13;;;;;;;0.93;0.93;;;;;;;-1.40;60.05;97036.03;29373;207;63009;-62
2022/03/05 02:33:44;;;;;;;0.60;0.60;;;;;;;-1.40;59.84;97034.19;29373;220;63005;-65
2022/03/05 02:34:18;;;;;;;0.60;0.60;;;;;;;-1.39;59.97;97030.47;29373;209;63009;-66